Terminal Aerodrome Forecast
Issued by NWS

Home | Current Version | Previous Version | Text Only | Print | Product List | Glossary On
Versions: 1 2 3 4 5 6 7 8 9 10 11 12
000
FTUS46 KHNX 011721
TAFMCE
TAF
KMCE 011721Z 0118/0218 13012KT P6SM BKN200
     FM012100 32008KT P6SM BKN200
     FM020600 VRB04KT P6SM BKN200=

USA.gov is the U.S. government's official web portal to all federal, state and local government web resources and services.